Time;durP1;ratioP1;P1;durP2;ratioP2;P2;SDS_P1;SDS_P2;PMS_P1;PMS_P2;Temp;Humidity;BMP_temperature;BMP_pressure;BME280_temperature;BME280_humidity;BME280_pressure;Samples;Min_cycle;Max_cycle;Signal;HPM_P1;HPM_P2
2023/01/17 00:00:27;;;;;;;;;13.50;11.50;;;;;5.55;68.72;98517.81;5007971;27;45560;-74
2023/01/17 00:03:05;;;;;;;;;13.75;11.00;;;;;5.60;68.56;98525.53;5029083;27;45646;-74
2023/01/17 00:11:05;;;;;;;;;15.75;12.75;;;;;5.56;69.59;98516.97;5013237;27;45490;-74
2023/01/17 00:13:33;;;;;;;;;11.25;10.00;;;;;5.58;69.69;98520.41;5055782;27;45529;-75
2023/01/17 00:15:59;;;;;;;;;13.75;12.00;;;;;5.54;68.97;98497.94;5002487;27;45403;-73
2023/01/17 00:18:26;;;;;;;;;13.50;11.00;;;;;5.60;68.84;98505.66;5002263;27;45442;-73
2023/01/17 00:26:26;;;;;;;;;12.75;10.00;;;;;5.56;68.62;98503.13;4992882;27;45454;-75
2023/01/17 01:35:52;;;;;;;;;9.75;7.25;;;;;5.51;69.98;98465.09;5034585;27;46101;-72
2023/01/17 01:38:31;;;;;;;;;;;;;;;;;;;;;
2023/01/17 01:40:57;;;;;;;;;7.25;4.00;;;;;5.34;68.76;98430.72;5019153;27;67264;-72
2023/01/17 01:43:46;;;;;;;;;6.25;6.00;;;;;5.58;69.07;98462.41;4973072;27;45549;-72
2023/01/17 01:46:38;;;;;;;;;7.50;5.25;;;;;5.59;69.30;98462.38;4972936;28;47535;-73
2023/01/17 01:49:19;;;;;;;;;6.75;6.75;;;;;5.56;69.30;98459.84;5005779;27;45463;-73
2023/01/17 01:51:51;;;;;;;;;6.25;6.00;;;;;5.58;69.30;98470.22;5039539;27;45598;-73
2023/01/17 01:54:24;;;;;;;;;7.00;6.00;;;;;5.47;69.55;98442.63;5031893;27;45818;-72
2023/01/17 01:56:53;;;;;;;;;7.00;7.00;;;;;5.48;69.12;98444.38;5009733;28;48219;-73
2023/01/17 01:59:21;;;;;;;;;8.50;7.00;;;;;5.57;69.45;98452.88;5007107;27;45539;-73
2023/01/17 02:01:50;;;;;;;;;6.00;6.00;;;;;5.56;69.22;98448.59;5037037;27;45550;-73
2023/01/17 02:04:17;;;;;;;;;4.25;4.00;;;;;5.54;69.56;98433.03;5044803;27;45925;-73
2023/01/17 02:06:50;;;;;;;;;8.50;7.25;;;;;5.50;69.14;98440.00;4992880;27;45500;-73
2023/01/17 02:09:31;;;;;;;;;8.75;7.75;;;;;5.34;69.55;98422.06;4987491;27;45447;-74
2023/01/17 02:12:24;;;;;;;;;7.25;7.00;;;;;5.37;69.41;98432.41;4959309;28;45906;-72
2023/01/17 02:15:05;;;;;;;;;6.50;6.50;;;;;5.16;69.69;98410.19;4989698;27;45597;-73
2023/01/17 02:18:00;;;;;;;;;7.25;6.50;;;;;5.21;70.29;98398.88;4980499;28;45638;-71
2023/01/17 02:21:27;;;;;;;;;6.00;6.00;;;;;5.38;69.76;98414.19;4987826;27;45307;-74
2023/01/17 02:24:33;;;;;;;;;7.00;6.50;;;;;5.32;70.21;98416.91;4985059;27;46539;-72
2023/01/17 02:27:07;;;;;;;;;9.50;7.00;;;;;5.10;69.87;98403.34;4992508;27;45444;-70
2023/01/17 02:29:54;;;;;;;;;11.50;10.00;;;;;5.02;70.24;98420.75;4994228;27;46573;-72
2023/01/17 02:32:45;;;;;;;;;14.50;12.50;;;;;4.85;71.12;98423.56;4990677;27;45429;-71
2023/01/17 02:35:31;;;;;;;;;17.25;16.50;;;;;4.60;72.51;98408.31;4989533;27;45415;-70
2023/01/17 02:38:04;;;;;;;;;17.75;17.50;;;;;4.43;73.29;98405.00;4980644;27;45458;-70
2023/01/17 02:40:37;;;;;;;;;23.75;21.00;;;;;4.08;73.99;98375.16;4990913;27;46233;-72
2023/01/17 02:43:09;;;;;;;;;22.50;18.50;;;;;4.00;74.24;98367.44;4989687;27;45587;-72
2023/01/17 02:45:34;;;;;;;;;19.50;19.50;;;;;4.03;74.32;98374.31;4976660;27;45370;-72
2023/01/17 02:48:00;;;;;;;;;21.00;18.00;;;;;3.91;74.65;98351.13;4992367;27;45439;-72
2023/01/17 02:50:36;;;;;;;;;21.75;21.50;;;;;3.95;74.21;98364.03;4991382;27;45723;-73
2023/01/17 02:53:12;;;;;;;;;20.00;17.25;;;;;4.03;74.26;98358.78;4991591;27;45563;-73
2023/01/17 02:55:52;;;;;;;;;19.50;18.75;;;;;4.02;74.47;98360.50;4995825;27;45451;-72
2023/01/17 02:58:39;;;;;;;;;22.75;19.00;;;;;3.90;74.63;98336.47;4978212;27;45525;-72
2023/01/17 03:01:26;;;;;;;;;29.75;23.25;;;;;3.83;74.82;98348.63;4991938;27;45772;-72
2023/01/17 03:04:03;;;;;;;;;24.25;19.75;;;;;3.70;74.47;98323.69;4980302;28;45597;-70
2023/01/17 03:06:47;;;;;;;;;22.75;19.50;;;;;3.70;75.55;98334.94;4972981;27;45539;-74
2023/01/17 03:09:16;;;;;;;;;18.50;16.75;;;;;3.56;75.34;98321.22;4992005;27;45474;-72
2023/01/17 03:11:42;;;;;;;;;16.00;14.25;;;;;3.58;75.25;98310.00;4975759;27;45294;-73
2023/01/17 03:14:08;;;;;;;;;26.50;19.25;;;;;3.63;75.24;98319.44;4973825;27;45753;-71
2023/01/17 03:16:35;;;;;;;;;21.00;12.00;;;;;3.64;75.21;98324.63;4972813;27;45817;-71
2023/01/17 03:19:01;;;;;;;;;22.00;19.75;;;;;3.55;75.97;98304.84;4974354;27;45300;-71
2023/01/17 03:21:27;;;;;;;;;23.25;21.50;;;;;3.59;75.83;98316.03;4991325;27;45458;-72
2023/01/17 03:23:52;;;;;;;;;18.50;18.00;;;;;3.52;76.68;98304.88;4975972;27;45472;-72
2023/01/17 03:26:18;;;;;;;;;21.00;19.75;;;;;3.48;76.36;98305.78;4991046;27;45459;-72
2023/01/17 03:28:43;;;;;;;;;20.25;17.25;;;;;3.55;76.06;98296.22;4973056;27;45373;-73
2023/01/17 03:31:13;;;;;;;;;19.00;18.00;;;;;3.65;75.71;98309.94;4990855;27;46338;-73
2023/01/17 03:33:39;;;;;;;;;23.50;18.00;;;;;3.61;75.86;98296.19;4991692;27;45968;-71
2023/01/17 03:36:04;;;;;;;;;16.25;16.25;;;;;3.56;75.79;98287.56;4973880;28;45462;-73
2023/01/17 03:38:30;;;;;;;;;16.00;15.50;;;;;3.54;76.21;98286.75;4990821;27;45566;-72
2023/01/17 03:40:55;;;;;;;;;19.75;15.50;;;;;3.53;75.73;98282.44;4974043;27;48133;-73
2023/01/17 03:43:21;;;;;;;;;18.00;17.25;;;;;3.63;76.08;98283.22;4995009;27;45325;-73
2023/01/17 03:45:53;;;;;;;;;21.25;16.75;;;;;3.67;76.03;98290.09;4996002;27;45456;-73
2023/01/17 03:48:19;;;;;;;;;22.50;16.25;;;;;3.64;75.95;98290.97;4975163;28;45532;-72
2023/01/17 03:50:48;;;;;;;;;19.25;15.75;;;;;3.59;75.96;98284.97;4972621;28;45611;-72
2023/01/17 03:53:14;;;;;;;;;20.00;14.75;;;;;3.50;76.56;98279.88;4995942;27;45292;-73
2023/01/17 03:55:39;;;;;;;;;18.25;14.00;;;;;3.42;77.26;98274.78;4977170;28;45513;-72
2023/01/17 03:58:05;;;;;;;;;14.50;12.25;;;;;3.50;76.82;98278.16;4991943;27;45406;-73
2023/01/17 04:00:31;;;;;;;;;16.50;14.75;;;;;3.42;77.25;98264.44;4991653;27;45516;-71
2023/01/17 04:02:56;;;;;;;;;17.00;13.00;;;;;3.38;77.15;98250.66;4991317;27;45761;-73
2023/01/17 04:05:22;;;;;;;;;18.50;12.75;;;;;3.48;76.72;98258.34;4995183;27;45406;-72
2023/01/17 04:07:47;;;;;;;;;15.25;10.25;;;;;3.60;76.27;98271.16;4991528;27;45613;-74
2023/01/17 04:10:13;;;;;;;;;17.75;13.25;;;;;3.66;76.29;98262.50;4992241;27;46527;-74
2023/01/17 04:12:39;;;;;;;;;12.75;11.00;;;;;3.70;76.31;98267.63;4995615;27;45443;-72
2023/01/17 04:15:05;;;;;;;;;9.75;9.75;;;;;3.75;76.00;98263.25;4995793;27;45603;-74
2023/01/17 04:17:30;;;;;;;;;15.50;11.75;;;;;3.87;75.39;98269.16;4996604;27;45421;-73
2023/01/17 04:19:56;;;;;;;;;11.25;6.50;;;;;3.82;76.01;98258.88;4974717;27;47072;-71
2023/01/17 04:22:21;;;;;;;;;16.50;14.00;;;;;3.86;75.33;98257.94;4991763;27;45493;-72
2023/01/17 04:24:47;;;;;;;;;13.75;13.75;;;;;3.79;75.77;98243.34;4993179;27;45473;-71
2023/01/17 04:27:13;;;;;;;;;18.00;14.75;;;;;3.77;75.74;98248.56;4994513;27;45388;-72
2023/01/17 04:29:39;;;;;;;;;16.75;15.75;;;;;3.81;75.51;98255.41;4973756;28;47860;-73
2023/01/17 04:32:04;;;;;;;;;19.00;14.00;;;;;3.78;75.79;98242.50;4994084;27;45395;-72
2023/01/17 04:34:30;;;;;;;;;15.00;15.00;;;;;3.74;76.16;98242.53;4996133;27;45434;-73
2023/01/17 04:36:55;;;;;;;;;18.75;16.75;;;;;3.82;75.52;98248.53;4995113;27;45339;-72
2023/01/17 04:39:21;;;;;;;;;19.75;18.25;;;;;3.85;76.27;98252.81;4991463;27;45865;-72
2023/01/17 04:41:47;;;;;;;;;18.75;14.75;;;;;3.71;76.02;98243.44;4992899;27;45588;-72
2023/01/17 04:44:12;;;;;;;;;20.75;17.50;;;;;3.84;76.11;98246.75;4994981;27;45802;-72
2023/01/17 04:46:37;;;;;;;;;13.75;12.50;;;;;3.77;75.75;98226.97;4973890;28;45383;-72
2023/01/17 04:49:03;;;;;;;;;15.75;14.50;;;;;3.80;75.78;98239.91;4972905;27;46855;-72
2023/01/17 04:51:29;;;;;;;;;22.25;18.50;;;;;3.65;76.75;98227.97;4991297;27;45840;-72
2023/01/17 04:53:54;;;;;;;;;23.00;19.00;;;;;3.43;76.96;98204.03;4991646;27;45574;-72
2023/01/17 04:56:20;;;;;;;;;19.00;16.25;;;;;3.54;76.76;98229.81;4975390;28;45552;-71
2023/01/17 04:58:46;;;;;;;;;22.00;21.50;;;;;3.36;77.52;98212.72;4975165;28;47966;-71
2023/01/17 05:01:12;;;;;;;;;19.75;18.00;;;;;3.38;77.42;98229.94;4990912;27;45601;-72
2023/01/17 05:03:37;;;;;;;;;21.25;18.50;;;;;3.30;77.71;98224.00;4976944;28;45526;-72
2023/01/17 05:06:03;;;;;;;;;17.75;15.25;;;;;3.18;78.17;98195.66;4973719;27;45578;-73
2023/01/17 05:08:29;;;;;;;;;22.50;19.00;;;;;3.34;77.98;98220.50;4992085;27;45551;-72
2023/01/17 05:10:54;;;;;;;;;24.50;18.75;;;;;3.12;77.44;98196.56;4990877;27;45507;-72
2023/01/17 05:13:20;;;;;;;;;23.75;18.75;;;;;3.16;78.37;98216.34;4990879;27;45278;-71
2023/01/17 05:15:45;;;;;;;;;35.25;23.25;;;;;3.21;78.41;98207.72;4991777;27;45660;-72
2023/01/17 05:18:13;;;;;;;;;24.25;19.00;;;;;3.14;78.72;98199.13;4990639;27;46521;-72
2023/01/17 05:20:38;;;;;;;;;23.25;19.00;;;;;3.16;78.59;98198.25;4991055;27;45410;-72
2023/01/17 05:23:04;;;;;;;;;22.75;21.75;;;;;3.18;77.72;98190.50;4990838;27;45593;-70
2023/01/17 05:25:32;;;;;;;;;28.50;19.00;;;;;3.18;78.69;98183.59;4990654;28;45480;-72
2023/01/17 05:28:01;;;;;;;;;23.00;19.00;;;;;3.33;78.56;98203.28;4990361;27;45607;-71
2023/01/17 05:30:30;;;;;;;;;30.50;18.75;;;;;3.44;77.23;98194.53;4972874;28;45638;-72
2023/01/17 05:32:57;;;;;;;;;26.50;21.50;;;;;3.49;77.54;98178.09;4973588;27;45466;-73
2023/01/17 05:35:28;;;;;;;;;26.00;22.00;;;;;3.54;77.18;98186.69;4973283;28;45624;-71
2023/01/17 05:37:54;;;;;;;;;27.75;24.25;;;;;3.58;77.56;98185.78;4972686;28;46348;-72
2023/01/17 05:40:23;;;;;;;;;21.75;20.25;;;;;3.56;77.10;98195.28;4969693;28;45597;-72
2023/01/17 05:42:51;;;;;;;;;24.50;19.00;;;;;3.53;76.41;98173.75;4985124;27;45367;-71
2023/01/17 05:45:19;;;;;;;;;21.50;19.75;;;;;3.53;76.84;98165.97;4995288;27;45271;-71
2023/01/17 05:47:46;;;;;;;;;26.75;21.75;;;;;3.50;76.73;98159.09;4994936;27;45480;-72
2023/01/17 05:50:15;;;;;;;;;24.25;16.50;;;;;3.59;76.16;98174.53;4994926;27;45365;-72
2023/01/17 05:52:41;;;;;;;;;20.50;18.00;;;;;3.63;76.40;98169.31;4992145;27;45543;-71
2023/01/17 05:55:07;;;;;;;;;21.00;18.25;;;;;3.66;76.76;98169.31;4973116;28;45542;-71
2023/01/17 05:57:33;;;;;;;;;19.00;15.25;;;;;3.63;76.32;98158.97;4992555;27;46151;-72
2023/01/17 05:59:59;;;;;;;;;12.00;12.00;;;;;3.70;75.94;98164.06;4990694;27;45465;-72
2023/01/17 06:02:28;;;;;;;;;14.25;14.25;;;;;3.74;75.79;98168.31;4993349;27;45498;-72
2023/01/17 06:04:53;;;;;;;;;23.75;16.75;;;;;3.75;75.78;98159.69;4994156;27;45362;-71
2023/01/17 06:07:19;;;;;;;;;22.75;18.50;;;;;3.82;76.05;98157.91;4993189;27;45846;-72
2023/01/17 06:09:45;;;;;;;;;21.00;21.00;;;;;3.80;75.50;98147.53;4993494;27;45485;-71
2023/01/17 06:12:11;;;;;;;;;21.50;19.25;;;;;3.73;75.35;98148.50;4992755;27;45500;-71
2023/01/17 06:14:36;;;;;;;;;24.50;16.50;;;;;3.73;75.15;98140.72;4993420;27;45858;-71
2023/01/17 06:17:02;;;;;;;;;19.00;18.00;;;;;3.75;75.78;98159.69;4975527;28;47618;-72
2023/01/17 06:19:28;;;;;;;;;9.25;6.25;;;;;3.72;75.54;98151.94;4993016;27;45342;-72
2023/01/17 06:21:54;;;;;;;;;17.25;15.75;;;;;3.72;75.30;98140.75;4993324;27;45322;-71
2023/01/17 06:24:19;;;;;;;;;22.50;17.00;;;;;3.74;75.67;98147.59;4992387;27;45489;-71
2023/01/17 06:26:45;;;;;;;;;18.75;15.50;;;;;3.82;75.74;98150.97;4993143;27;46371;-71
2023/01/17 06:29:11;;;;;;;;;16.25;15.00;;;;;3.82;75.79;98148.38;4993281;27;45353;-72
2023/01/17 06:31:37;;;;;;;;;21.25;17.25;;;;;3.84;74.81;98138.00;4978549;27;45558;-72
2023/01/17 06:34:03;;;;;;;;;17.00;13.75;;;;;3.87;75.19;98143.16;4975560;28;45362;-73
2023/01/17 06:36:31;;;;;;;;;24.75;16.00;;;;;3.88;74.97;98149.19;4992830;27;45321;-73
2023/01/17 06:38:56;;;;;;;;;14.50;11.50;;;;;3.90;75.08;98152.63;4995157;27;46044;-72
2023/01/17 06:41:22;;;;;;;;;21.00;16.25;;;;;3.96;74.74;98153.41;4997413;27;45404;-72
2023/01/17 06:43:48;;;;;;;;;17.00;14.25;;;;;3.85;74.99;98134.53;5017929;27;45520;-72
2023/01/17 06:46:14;;;;;;;;;17.25;15.50;;;;;3.98;75.43;98153.34;4992600;27;46329;-71
2023/01/17 06:48:42;;;;;;;;;18.25;16.75;;;;;3.75;74.83;98117.38;4992983;27;45466;-72
2023/01/17 06:51:08;;;;;;;;;12.75;9.25;;;;;3.94;75.45;98162.03;4992866;27;45729;-73
2023/01/17 06:53:34;;;;;;;;;20.00;14.25;;;;;3.79;75.47;98140.63;4993467;27;45460;-72
2023/01/17 06:56:00;;;;;;;;;20.00;18.00;;;;;3.94;75.33;98151.69;4995819;27;46108;-73
2023/01/17 06:58:26;;;;;;;;;17.50;16.00;;;;;3.85;75.12;98144.91;4992484;27;45592;-72
2023/01/17 07:00:51;;;;;;;;;19.25;17.25;;;;;3.86;75.07;98149.19;4993451;27;45441;-71
2023/01/17 07:03:23;;;;;;;;;21.50;19.00;;;;;3.83;75.42;98139.72;4996962;27;45370;-72
2023/01/17 07:05:49;;;;;;;;;21.75;17.25;;;;;3.82;75.77;98142.34;4994082;27;46287;-71
2023/01/17 07:08:16;;;;;;;;;14.00;13.25;;;;;3.83;75.98;98144.91;4975356;28;45455;-71
2023/01/17 07:10:46;;;;;;;;;20.00;15.50;;;;;3.87;75.46;98148.34;4992712;27;45565;-73
2023/01/17 07:13:12;;;;;;;;;19.50;16.50;;;;;3.87;75.45;98153.50;4991843;27;45351;-72
2023/01/17 07:15:39;;;;;;;;;17.00;12.75;;;;;3.80;75.68;98142.38;4992191;27;46303;-71
2023/01/17 07:18:05;;;;;;;;;16.75;15.75;;;;;3.86;75.20;98154.38;4973692;27;45566;-73
2023/01/17 07:20:31;;;;;;;;;21.50;16.75;;;;;3.81;75.84;98145.81;4974747;28;45786;-71
2023/01/17 07:22:58;;;;;;;;;17.00;15.75;;;;;3.91;75.61;98168.13;4994609;27;45586;-73
2023/01/17 07:25:24;;;;;;;;;20.25;19.25;;;;;3.91;75.33;98164.66;4974387;28;46599;-71
2023/01/17 07:27:53;;;;;;;;;24.25;19.25;;;;;3.89;75.37;98161.25;4992011;27;45347;-71
2023/01/17 07:30:19;;;;;;;;;24.75;18.00;;;;;3.83;76.35;98149.25;4992260;27;45422;-72
2023/01/17 07:32:50;;;;;;;;;21.50;18.00;;;;;3.86;75.37;98150.94;4976460;28;45513;-71
2023/01/17 07:35:16;;;;;;;;;19.00;15.50;;;;;3.83;75.83;98149.25;4978193;28;45758;-72
2023/01/17 07:37:47;;;;;;;;;18.00;17.75;;;;;3.92;75.59;98145.69;4974898;28;46061;-72
2023/01/17 07:40:13;;;;;;;;;21.50;15.75;;;;;3.79;75.50;98129.44;4975913;28;45705;-71
2023/01/17 07:42:38;;;;;;;;;19.50;18.25;;;;;3.75;75.55;98145.88;4971065;28;45385;-70
2023/01/17 07:45:04;;;;;;;;;24.25;17.50;;;;;3.64;75.46;98127.91;4970370;27;46262;-72
2023/01/17 07:47:32;;;;;;;;;23.75;17.50;;;;;3.72;76.49;98135.56;4993765;27;45416;-72
2023/01/17 07:49:57;;;;;;;;;18.25;15.50;;;;;3.69;75.65;98123.50;4978290;28;45435;-71
2023/01/17 07:52:23;;;;;;;;;17.75;16.75;;;;;3.85;76.70;98133.69;4995976;27;45502;-71
2023/01/17 07:54:48;;;;;;;;;15.25;15.25;;;;;3.87;75.56;98134.50;4977153;27;48082;-73
2023/01/17 07:57:14;;;;;;;;;16.75;14.00;;;;;3.93;76.22;98150.81;4992148;27;45433;-73
2023/01/17 07:59:40;;;;;;;;;20.00;16.00;;;;;4.01;76.49;98149.00;4992981;27;45736;-71
2023/01/17 08:02:14;;;;;;;;;18.75;13.25;;;;;4.04;76.63;98151.56;4996369;27;45477;-72
2023/01/17 08:04:39;;;;;;;;;16.00;12.00;;;;;3.99;76.28;98147.31;4995602;27;45999;-71
2023/01/17 08:07:05;;;;;;;;;15.50;14.00;;;;;4.00;76.46;98149.03;4974084;28;45496;-72
2023/01/17 08:09:31;;;;;;;;;14.75;12.25;;;;;3.89;76.92;98131.03;4973852;27;45393;-72
2023/01/17 08:11:56;;;;;;;;;19.25;15.25;;;;;4.03;76.60;98164.50;4973630;28;45809;-71
2023/01/17 08:14:22;;;;;;;;;15.00;14.50;;;;;3.99;76.18;98161.13;4992869;27;46141;-72
2023/01/17 08:16:47;;;;;;;;;20.00;18.00;;;;;3.93;76.58;98148.25;4975189;28;45461;-72
2023/01/17 08:19:14;;;;;;;;;22.50;16.00;;;;;4.01;76.96;98161.97;4991403;27;45530;-72
2023/01/17 08:21:39;;;;;;;;;27.75;22.25;;;;;3.97;76.87;98165.47;4994818;27;45958;-72
2023/01/17 08:24:05;;;;;;;;;23.50;19.00;;;;;3.91;76.83;98155.16;4990285;27;46453;-71
2023/01/17 08:26:30;;;;;;;;;20.50;16.50;;;;;3.98;77.27;98167.16;4991415;27;45922;-70
2023/01/17 08:28:59;;;;;;;;;23.50;22.25;;;;;4.03;77.05;98164.50;4991717;27;45793;-73
2023/01/17 08:31:26;;;;;;;;;24.25;20.00;;;;;3.91;77.73;98146.53;4976683;28;45502;-71
2023/01/17 08:33:51;;;;;;;;;23.25;20.00;;;;;4.03;76.45;98160.22;4992544;27;46187;-71
2023/01/17 08:36:18;;;;;;;;;28.50;22.75;;;;;4.06;75.84;98163.63;4991903;27;45449;-72
2023/01/17 08:38:43;;;;;;;;;23.75;22.00;;;;;4.01;75.76;98143.84;4994830;27;45564;-71
2023/01/17 08:41:09;;;;;;;;;29.50;22.75;;;;;4.01;75.99;98143.84;4992074;27;45341;-73
2023/01/17 08:43:34;;;;;;;;;24.50;22.50;;;;;4.13;76.03;98160.94;4992325;27;46153;-73
2023/01/17 08:46:00;;;;;;;;;23.00;20.75;;;;;4.09;76.00;98161.84;4993327;27;45469;-72
2023/01/17 08:48:26;;;;;;;;;17.25;13.25;;;;;4.04;76.20;98153.28;4995282;27;45406;-72
2023/01/17 08:50:51;;;;;;;;;24.50;22.50;;;;;4.12;75.27;98153.19;4972784;27;45496;-71
2023/01/17 08:53:20;;;;;;;;;28.75;25.25;;;;;3.88;75.76;98108.59;4978837;27;45787;-71
2023/01/17 08:55:46;;;;;;;;;24.75;22.25;;;;;3.99;75.44;98130.03;4986580;27;45548;-72
2023/01/17 08:58:12;;;;;;;;;24.00;21.75;;;;;4.15;75.71;98146.25;4982586;28;45910;-72
2023/01/17 09:00:38;;;;;;;;;30.75;27.00;;;;;4.13;76.15;98153.16;4970590;28;45500;-73
2023/01/17 09:03:09;;;;;;;;;23.50;22.00;;;;;4.10;74.84;98142.84;4981686;27;46254;-73
2023/01/17 09:05:34;;;;;;;;;27.50;22.75;;;;;4.04;75.61;98130.81;4990172;28;45451;-73
2023/01/17 09:08:00;;;;;;;;;28.00;23.25;;;;;3.97;75.28;98120.59;4991896;27;45482;-70
2023/01/17 09:10:26;;;;;;;;;23.50;20.75;;;;;4.13;75.75;98140.22;4980292;28;45307;-72
2023/01/17 09:12:51;;;;;;;;;25.50;19.25;;;;;4.19;75.62;98142.72;4960960;27;45799;-73
2023/01/17 09:15:19;;;;;;;;;21.00;18.50;;;;;4.27;75.81;98136.56;5026132;27;45773;-69
2023/01/17 09:17:45;;;;;;;;;23.25;18.25;;;;;4.36;75.18;98146.78;4988403;27;45602;-73
2023/01/17 09:20:11;;;;;;;;;24.25;19.50;;;;;4.44;74.43;98139.78;5017739;27;45561;-74
2023/01/17 09:22:37;;;;;;;;;19.50;17.75;;;;;4.45;74.65;98141.47;4975356;28;46560;-74
2023/01/17 09:25:05;;;;;;;;;22.25;17.00;;;;;4.41;74.35;98124.25;4986661;27;45604;-74
2023/01/17 09:27:31;;;;;;;;;20.00;18.00;;;;;4.52;74.54;98137.91;4959968;28;45549;-74
2023/01/17 09:29:57;;;;;;;;;19.25;16.00;;;;;4.53;74.54;98129.28;4974698;27;45866;-73
2023/01/17 09:32:22;;;;;;;;;22.50;17.75;;;;;4.62;74.13;98141.22;4958815;28;47706;-74
2023/01/17 09:34:48;;;;;;;;;14.25;13.00;;;;;4.66;74.19;98143.75;4989485;27;45457;-73
2023/01/17 09:37:13;;;;;;;;;17.25;14.00;;;;;4.64;74.21;98137.72;4978471;27;45435;-73
2023/01/17 09:39:39;;;;;;;;;19.75;12.50;;;;;4.72;73.70;98140.19;4988463;27;45496;-72
2023/01/17 09:42:20;;;;;;;;;18.25;12.25;;;;;4.73;73.59;98135.88;4984241;27;46225;-75
2023/01/17 09:44:52;;;;;;;;;16.25;13.25;;;;;4.83;74.02;98153.00;4991029;27;45532;-74
2023/01/17 09:47:32;;;;;;;;;16.00;13.00;;;;;4.88;73.91;98141.66;4993883;27;45559;-72
2023/01/17 09:50:23;;;;;;;;;24.00;18.50;;;;;5.03;72.88;98156.13;4993953;27;45695;-72
2023/01/17 09:52:49;;;;;;;;;21.00;15.25;;;;;5.06;73.37;98163.00;4993309;27;46222;-72
2023/01/17 09:55:16;;;;;;;;;18.00;17.00;;;;;4.97;72.70;98151.03;4993258;27;45559;-71
2023/01/17 09:58:01;;;;;;;;;18.25;15.25;;;;;5.03;73.53;98153.53;4980556;27;45459;-71
2023/01/17 10:00:54;;;;;;;;;20.00;16.75;;;;;5.02;72.43;98159.59;4980869;27;45387;-71
2023/01/17 10:03:23;;;;;;;;;17.00;13.00;;;;;5.06;72.89;98174.22;4981826;27;46377;-71
2023/01/17 10:06:07;;;;;;;;;15.00;13.25;;;;;5.05;72.55;98169.94;4979968;27;45430;-71
2023/01/17 10:09:17;;;;;;;;;18.25;13.50;;;;;5.07;72.80;98173.31;4982449;27;45316;-75
2023/01/17 10:11:54;;;;;;;;;16.25;14.50;;;;;5.12;72.39;98175.00;5014043;28;45854;-74
2023/01/17 10:14:23;;;;;;;;;19.00;17.25;;;;;5.15;72.63;98182.72;4974331;27;47041;-75
2023/01/17 10:17:26;;;;;;;;;15.75;14.50;;;;;5.17;72.90;98180.97;4973597;28;45545;-75
2023/01/17 10:20:14;;;;;;;;;15.50;11.75;;;;;5.22;72.86;98184.31;4971870;27;45322;-76
2023/01/17 10:23:06;;;;;;;;;14.00;12.50;;;;;5.14;72.37;98155.06;4989708;27;45353;-74
2023/01/17 10:25:48;;;;;;;;;18.50;13.75;;;;;5.26;72.12;98175.63;4973355;27;46827;-74
2023/01/17 10:28:37;;;;;;;;;15.50;14.50;;;;;5.31;72.29;98184.16;4987475;27;45792;-75
2023/01/17 10:31:09;;;;;;;;;11.25;11.00;;;;;5.27;71.43;98182.53;4981911;27;45425;-75
2023/01/17 10:34:03;;;;;;;;;11.75;11.75;;;;;5.20;72.00;98178.34;4985683;27;45415;-77
2023/01/17 10:36:37;;;;;;;;;14.50;11.00;;;;;5.29;71.96;98181.63;4996103;27;46229;-75
2023/01/17 10:39:20;;;;;;;;;17.50;12.25;;;;;5.09;72.24;98139.59;4990858;27;45551;-74
2023/01/17 10:41:56;;;;;;;;;15.00;12.00;;;;;5.31;72.08;98177.25;4971903;27;45597;-77
2023/01/17 10:44:32;;;;;;;;;12.75;11.75;;;;;5.38;71.86;98177.13;4980158;27;45814;-72
2023/01/17 10:47:06;;;;;;;;;17.50;14.00;;;;;5.38;71.24;98179.72;4987661;28;46562;-74
2023/01/17 10:49:32;;;;;;;;;15.50;13.00;;;;;5.25;70.99;98169.56;4992761;27;45410;-73
2023/01/17 10:52:35;;;;;;;;;15.00;14.00;;;;;5.31;71.67;98182.44;4975671;28;45408;-72
2023/01/17 10:55:18;;;;;;;;;16.75;14.00;;;;;5.36;71.48;98171.97;4983021;27;45540;-72
2023/01/17 10:57:47;;;;;;;;;10.50;7.75;;;;;5.13;72.20;98137.81;4992849;27;46228;-75
2023/01/17 11:00:38;;;;;;;;;16.75;13.25;;;;;5.37;71.55;98170.25;4978702;27;45402;-76
2023/01/17 11:03:05;;;;;;;;;20.75;17.75;;;;;5.39;71.67;98169.34;4999663;27;45619;-74
2023/01/17 11:05:32;;;;;;;;;19.00;16.25;;;;;5.27;71.16;98159.19;4979241;28;45624;-76
2023/01/17 11:07:58;;;;;;;;;18.75;16.50;;;;;5.29;72.21;98159.97;4996248;27;45379;-74
2023/01/17 11:10:45;;;;;;;;;17.25;16.50;;;;;5.31;71.84;98155.63;4996644;27;45466;-74
2023/01/17 11:13:31;;;;;;;;;16.00;14.75;;;;;5.41;72.46;98148.50;4980777;27;45491;-75
2023/01/17 11:16:07;;;;;;;;;19.50;15.75;;;;;5.28;72.15;98120.19;4997122;27;45376;-74
2023/01/17 11:18:38;;;;;;;;;19.50;14.00;;;;;5.41;71.86;98139.00;4993745;27;46136;-74
2023/01/17 11:21:19;;;;;;;;;14.25;12.50;;;;;5.47;71.83;98141.47;4992617;27;45588;-73
2023/01/17 11:23:50;;;;;;;;;17.50;13.75;;;;;5.47;71.57;98140.63;4981068;27;45462;-74
2023/01/17 11:26:24;;;;;;;;;14.25;11.25;;;;;5.57;71.88;98131.75;4992766;27;45311;-75
2023/01/17 11:28:51;;;;;;;;;15.00;13.00;;;;;5.70;71.53;98140.19;4992380;27;45726;-74
2023/01/17 11:31:16;;;;;;;;;16.75;14.75;;;;;5.74;70.99;98144.41;4996024;27;45780;-73
2023/01/17 11:33:55;;;;;;;;;14.00;14.00;;;;;5.72;71.23;98128.88;4993504;27;45363;-74
2023/01/17 11:36:29;;;;;;;;;18.50;16.00;;;;;5.76;70.79;98116.66;4994332;27;45414;-74
2023/01/17 11:38:55;;;;;;;;;21.25;21.00;;;;;5.84;71.17;98140.75;4993920;27;45407;-74
2023/01/17 11:41:21;;;;;;;;;19.75;17.50;;;;;5.64;70.65;98116.91;4993889;27;45512;-76
2023/01/17 11:43:53;;;;;;;;;18.00;16.00;;;;;5.47;70.47;98094.75;4974595;27;45476;-74
2023/01/17 11:46:20;;;;;;;;;18.75;16.25;;;;;5.57;70.98;98120.53;4992797;27;45319;-75
2023/01/17 11:48:54;;;;;;;;;19.75;16.25;;;;;5.52;71.15;98128.41;4975366;27;45812;-73
2023/01/17 11:51:38;;;;;;;;;22.25;17.25;;;;;5.49;71.09;98126.72;4994952;27;45395;-75
2023/01/17 11:54:24;;;;;;;;;23.50;20.25;;;;;5.29;71.47;98103.75;4992743;27;45331;-74
2023/01/17 11:56:59;;;;;;;;;19.00;17.75;;;;;5.44;73.15;98128.56;4975325;27;45713;-72
2023/01/17 11:59:36;;;;;;;;;20.25;15.25;;;;;5.48;72.05;98118.97;4990510;27;46174;-76
2023/01/17 12:02:20;;;;;;;;;16.75;14.25;;;;;5.50;72.18;98120.66;4974920;27;45699;-75
2023/01/17 12:05:14;;;;;;;;;19.25;17.50;;;;;5.51;71.85;98114.56;4986617;27;45624;-75
2023/01/17 12:08:11;;;;;;;;;20.75;19.75;;;;;5.65;71.37;98116.06;4979931;27;45497;-75
2023/01/17 12:10:43;;;;;;;;;18.75;16.00;;;;;5.66;71.07;98113.41;4967385;28;47702;-73
2023/01/17 12:13:59;;;;;;;;;23.25;19.50;;;;;5.66;71.65;98099.56;4965612;28;45510;-74
2023/01/17 12:16:48;;;;;;;;;22.50;17.75;;;;;5.65;71.02;98096.13;4977770;27;45533;-75
2023/01/17 12:19:32;;;;;;;;;17.50;14.50;;;;;5.70;71.85;98109.03;4987013;27;46167;-74
2023/01/17 12:22:39;;;;;;;;;19.25;17.50;;;;;5.69;71.16;98102.94;4978083;27;47066;-75
2023/01/17 12:25:29;;;;;;;;;20.75;20.50;;;;;5.64;71.07;98106.53;4982909;27;46133;-74
2023/01/17 12:28:21;;;;;;;;;17.00;16.75;;;;;5.49;71.02;98080.00;4959713;27;45573;-72
2023/01/17 12:31:07;;;;;;;;;18.00;14.00;;;;;5.51;71.61;98092.97;4962989;27;45631;-73
2023/01/17 12:33:38;;;;;;;;;21.25;17.75;;;;;5.51;71.52;98093.81;4960779;28;47944;-74
2023/01/17 12:36:16;;;;;;;;;16.25;14.00;;;;;5.56;71.78;98090.28;4981398;27;45465;-73
2023/01/17 12:38:46;;;;;;;;;16.75;14.25;;;;;5.47;70.89;98078.31;4961052;28;45504;-73
2023/01/17 12:41:28;;;;;;;;;15.25;15.25;;;;;5.62;71.13;98103.13;4984070;27;45449;-74
2023/01/17 12:43:58;;;;;;;;;16.50;13.50;;;;;5.59;71.50;98095.41;4961783;28;46889;-73
2023/01/17 12:46:29;;;;;;;;;17.25;15.00;;;;;5.63;71.50;98097.06;4970243;28;45611;-72
2023/01/17 12:49:17;;;;;;;;;16.00;14.00;;;;;5.64;71.63;98091.81;4988591;27;45330;-77
2023/01/17 12:51:49;;;;;;;;;20.75;16.75;;;;;5.71;71.05;98087.34;4976513;28;45514;-73
2023/01/17 12:54:24;;;;;;;;;19.00;14.00;;;;;5.77;70.92;98071.66;4992811;27;46682;-71
2023/01/17 12:57:02;;;;;;;;;16.50;11.25;;;;;5.85;70.93;98074.91;4991119;27;45395;-70
2023/01/17 12:59:57;;;;;;;;;16.50;12.50;;;;;5.95;70.73;98086.84;4990795;27;45338;-72
2023/01/17 13:02:37;;;;;;;;;15.25;13.75;;;;;5.96;70.27;98087.72;4976362;27;45475;-72
2023/01/17 13:05:16;;;;;;;;;17.75;15.00;;;;;5.83;70.17;98062.84;4977454;27;47763;-70